Time;durP1;ratioP1;P1;durP2;ratioP2;P2;SDS_P1;SDS_P2;PMS_P1;PMS_P2;Temp;Humidity;BMP_temperature;BMP_pressure;BME280_temperature;BME280_humidity;BME280_pressure;Samples;Min_cycle;Max_cycle;Signal;HPM_P1;HPM_P2
2023/08/02 00:04:18;;;;;;;0.55;0.50;;;;;;;;;;12977991;22;20362;-87
2023/08/02 00:09:20;;;;;;;0.88;0.50;;;;;;;;;;12978991;22;20441;-86
2023/08/02 00:14:24;;;;;;;1.73;0.60;;;;;;;;;;12978906;22;20389;-86
2023/08/02 00:19:26;;;;;;;0.90;0.60;;;;;;;;;;13002925;22;20367;-87
2023/08/02 00:24:28;;;;;;;1.35;0.60;;;;;;;;;;12982638;22;20452;-87
2023/08/02 00:29:32;;;;;;;2.53;1.00;;;;;;;;;;12981167;22;20747;-87
2023/08/02 00:34:34;;;;;;;0.50;0.50;;;;;;;;;;12981833;22;20359;-87
2023/08/02 00:39:36;;;;;;;0.88;0.60;;;;;;;;;;12981610;22;20434;-87
2023/08/02 00:44:40;;;;;;;0.87;0.67;;;;;;;;;;13002483;22;20815;-86
2023/08/02 00:49:42;;;;;;;1.00;0.47;;;;;;;;;;12981448;22;20407;-81
2023/08/02 00:54:45;;;;;;;0.80;0.52;;;;;;;;;;12979356;22;20363;-81
2023/08/02 00:59:49;;;;;;;0.70;0.50;;;;;;;;;;12980186;22;20367;-81
2023/08/02 01:04:51;;;;;;;2.90;0.60;;;;;;;;;;12980038;22;20362;-82
2023/08/02 01:09:59;;;;;;;1.47;0.60;;;;;;;;;;13001925;22;20683;-81
2023/08/02 01:15:04;;;;;;;1.50;0.63;;;;;;;;;;12979893;22;20363;-81
2023/08/02 01:20:09;;;;;;;0.70;0.60;;;;;;;;;;12980699;22;20367;-81
2023/08/02 01:25:11;;;;;;;1.85;0.77;;;;;;;;;;12980473;22;20366;-81
2023/08/02 01:30:17;;;;;;;1.30;0.70;;;;;;;;;;12979796;22;21193;-81
2023/08/02 01:35:21;;;;;;;1.20;0.60;;;;;;;;;;12978773;22;20401;-82
2023/08/02 01:40:24;;;;;;;4.60;0.70;;;;;;;;;;12976396;22;20371;-81
2023/08/02 01:45:26;;;;;;;1.20;0.70;;;;;;;;;;12973972;22;20371;-81
2023/08/02 01:50:30;;;;;;;1.83;0.70;;;;;;;;;;12951561;22;20438;-81
2023/08/02 01:55:32;;;;;;;0.80;0.60;;;;;;;;;;12909617;23;20372;-81
2023/08/02 02:00:34;;;;;;;2.70;0.60;;;;;;;;;;12913371;23;20365;-81
2023/08/02 02:05:38;;;;;;;2.07;0.60;;;;;;;;;;12916124;23;20369;-81
2023/08/02 02:10:48;;;;;;;0.60;0.50;;;;;;;;;;12914970;23;20478;-81
2023/08/02 02:15:50;;;;;;;0.53;0.53;;;;;;;;;;12914538;23;20368;-80
2023/08/02 02:20:54;;;;;;;1.60;0.70;;;;;;;;;;12914819;23;20586;-82
2023/08/02 02:25:56;;;;;;;0.50;0.50;;;;;;;;;;12914810;23;20744;-81
2023/08/02 02:30:59;;;;;;;1.25;0.55;;;;;;;;;;12914493;23;20681;-81
2023/08/02 02:36:04;;;;;;;1.65;0.60;;;;;;;;;;12915017;23;20364;-81
2023/08/02 02:41:06;;;;;;;1.97;0.60;;;;;;;;;;12914389;23;20390;-81
2023/08/02 02:46:08;;;;;;;1.42;0.57;;;;;;;;;;12915343;23;20422;-80
2023/08/02 02:51:12;;;;;;;2.17;0.40;;;;;;;;;;12914687;22;20411;-81
2023/08/02 02:56:14;;;;;;;0.50;0.50;;;;;;;;;;12913442;23;20373;-81
2023/08/02 03:01:17;;;;;;;1.47;0.47;;;;;;;;;;12916473;23;20420;-81
2023/08/02 03:06:20;;;;;;;0.80;0.50;;;;;;;;;;12914818;23;20430;-81
2023/08/02 03:11:23;;;;;;;0.90;0.40;;;;;;;;;;12913850;23;20872;-81
2023/08/02 03:16:25;;;;;;;0.70;0.50;;;;;;;;;;12916509;23;20368;-81
2023/08/02 03:21:29;;;;;;;0.80;0.45;;;;;;;;;;12917263;23;20372;-81
2023/08/02 03:26:31;;;;;;;0.95;0.40;;;;;;;;;;12918161;23;20360;-81
2023/08/02 03:31:34;;;;;;;1.38;0.60;;;;;;;;;;12918589;23;20384;-81
2023/08/02 03:36:38;;;;;;;2.03;0.50;;;;;;;;;;12918474;23;20832;-81
2023/08/02 03:41:40;;;;;;;1.45;0.50;;;;;;;;;;12917950;23;20361;-81
2023/08/02 03:46:42;;;;;;;0.60;0.40;;;;;;;;;;12918968;23;20365;-80
2023/08/02 03:51:47;;;;;;;0.60;0.50;;;;;;;;;;12917499;22;20418;-80
2023/08/02 03:56:49;;;;;;;0.77;0.40;;;;;;;;;;12917583;23;20820;-81
2023/08/02 04:01:51;;;;;;;0.45;0.30;;;;;;;;;;12917711;23;20399;-81
2023/08/02 04:06:55;;;;;;;0.63;0.32;;;;;;;;;;12917629;23;20455;-81
2023/08/02 04:11:57;;;;;;;0.30;0.30;;;;;;;;;;12917714;23;20384;-81
2023/08/02 04:16:59;;;;;;;1.10;0.40;;;;;;;;;;12918409;23;20365;-81
2023/08/02 04:22:03;;;;;;;1.00;0.30;;;;;;;;;;12916797;23;20407;-81
2023/08/02 04:27:06;;;;;;;1.33;0.40;;;;;;;;;;12917569;23;20395;-81
2023/08/02 04:32:08;;;;;;;0.65;0.40;;;;;;;;;;12915862;23;20388;-81
2023/08/02 04:37:12;;;;;;;0.98;0.40;;;;;;;;;;12917027;23;20422;-82
2023/08/02 04:42:16;;;;;;;0.95;0.40;;;;;;;;;;12916048;23;20365;-80
2023/08/02 04:47:18;;;;;;;1.00;0.52;;;;;;;;;;12917316;23;20829;-81
2023/08/02 04:52:22;;;;;;;0.65;0.52;;;;;;;;;;12916525;22;20384;-82
2023/08/02 04:57:25;;;;;;;1.60;0.60;;;;;;;;;;12915039;23;20407;-82
2023/08/02 05:02:33;;;;;;;1.08;0.98;;;;;;;;;;12916497;23;20889;-81
2023/08/02 05:07:38;;;;;;;1.52;0.60;;;;;;;;;;12916131;23;20681;-81
2023/08/02 05:12:41;;;;;;;1.85;0.50;;;;;;;;;;12914889;23;20414;-81
2023/08/02 05:17:43;;;;;;;2.70;0.57;;;;;;;;;;12915102;23;20372;-81
2023/08/02 05:22:47;;;;;;;1.30;0.50;;;;;;;;;;12916685;23;20372;-81
2023/08/02 05:27:49;;;;;;;0.70;0.50;;;;;;;;;;12915315;23;20403;-81
2023/08/02 05:32:52;;;;;;;1.90;0.50;;;;;;;;;;12915895;23;20380;-82
2023/08/02 05:37:55;;;;;;;0.65;0.55;;;;;;;;;;12916736;23;20372;-81
2023/08/02 05:42:57;;;;;;;2.77;0.50;;;;;;;;;;12914643;23;20436;-81
2023/08/02 05:48:00;;;;;;;2.90;0.60;;;;;;;;;;12915922;23;20813;-81
2023/08/02 05:53:03;;;;;;;1.98;0.80;;;;;;;;;;12914024;22;20414;-80
2023/08/02 05:58:06;;;;;;;1.95;0.70;;;;;;;;;;12912208;23;20403;-80
2023/08/02 06:03:08;;;;;;;0.70;0.43;;;;;;;;;;12914700;23;20373;-80
2023/08/02 06:08:12;;;;;;;1.67;0.60;;;;;;;;;;12902326;23;21158;-80
2023/08/02 06:13:14;;;;;;;0.73;0.60;;;;;;;;;;12913865;23;20415;-79
2023/08/02 06:18:16;;;;;;;0.60;0.60;;;;;;;;;;12914135;23;20539;-80
2023/08/02 06:23:20;;;;;;;1.40;0.68;;;;;;;;;;12915028;23;20685;-80
2023/08/02 06:28:23;;;;;;;1.80;0.60;;;;;;;;;;12914500;23;20368;-80
2023/08/02 06:33:25;;;;;;;2.05;0.60;;;;;;;;;;12914075;23;20767;-80
2023/08/02 06:38:29;;;;;;;0.82;0.60;;;;;;;;;;12914115;23;20364;-80
2023/08/02 06:43:31;;;;;;;2.00;0.90;;;;;;;;;;12914314;23;20451;-80
2023/08/02 06:48:33;;;;;;;1.40;0.70;;;;;;;;;;12913809;23;20368;-81
2023/08/02 06:53:37;;;;;;;1.40;1.00;;;;;;;;;;12913226;22;20384;-80
2023/08/02 06:58:40;;;;;;;1.52;0.65;;;;;;;;;;12917257;23;20368;-80
2023/08/02 07:03:42;;;;;;;1.67;0.90;;;;;;;;;;12918329;23;20368;-80
2023/08/02 07:08:46;;;;;;;1.30;0.70;;;;;;;;;;12918161;23;20701;-80
2023/08/02 07:13:48;;;;;;;2.10;0.70;;;;;;;;;;12918645;23;20384;-80
2023/08/02 07:18:51;;;;;;;1.50;0.57;;;;;;;;;;12917922;23;20368;-81
2023/08/02 07:23:54;;;;;;;1.60;0.60;;;;;;;;;;12919095;23;20368;-80
2023/08/02 07:28:57;;;;;;;1.48;0.60;;;;;;;;;;12920679;23;20372;-80
2023/08/02 07:33:59;;;;;;;1.80;0.47;;;;;;;;;;12917720;23;20388;-80
2023/08/02 07:39:02;;;;;;;0.60;0.50;;;;;;;;;;12918620;23;20368;-80
2023/08/02 07:44:05;;;;;;;1.15;0.60;;;;;;;;;;12917750;23;20372;-80
2023/08/02 07:49:08;;;;;;;1.00;0.63;;;;;;;;;;12917156;22;20376;-81
2023/08/02 07:54:12;;;;;;;0.70;0.60;;;;;;;;;;12916395;23;20368;-81
2023/08/02 07:59:14;;;;;;;1.07;0.53;;;;;;;;;;12916584;23;20435;-81
2023/08/02 08:04:16;;;;;;;1.80;0.47;;;;;;;;;;12916841;23;20368;-81
2023/08/02 08:09:23;;;;;;;1.10;0.60;;;;;;;;;;12917331;23;20828;-81
2023/08/02 08:14:26;;;;;;;1.42;0.70;;;;;;;;;;12916162;23;20748;-80
2023/08/02 08:19:29;;;;;;;1.70;0.50;;;;;;;;;;12916650;23;20376;-81
2023/08/02 08:24:33;;;;;;;0.87;0.50;;;;;;;;;;12917333;23;20373;-81
2023/08/02 08:29:35;;;;;;;0.57;0.40;;;;;;;;;;12915757;23;20364;-79
2023/08/02 08:34:37;;;;;;;0.95;0.80;;;;;;;;;;12917295;23;20442;-80
2023/08/02 08:39:41;;;;;;;2.90;0.70;;;;;;;;;;12916074;23;20395;-80
2023/08/02 08:44:43;;;;;;;0.75;0.50;;;;;;;;;;12915193;23;20376;-80
2023/08/02 08:49:46;;;;;;;1.95;0.60;;;;;;;;;;12914821;22;20422;-80
2023/08/02 08:54:52;;;;;;;2.08;0.60;;;;;;;;;;12915510;23;20368;-80
2023/08/02 08:59:54;;;;;;;0.80;0.70;;;;;;;;;;12915483;23;20744;-80
2023/08/02 09:04:58;;;;;;;1.85;0.68;;;;;;;;;;12915870;23;20678;-81
2023/08/02 09:10:01;;;;;;;0.80;0.70;;;;;;;;;;12916280;23;20430;-80
2023/08/02 09:15:05;;;;;;;1.55;0.70;;;;;;;;;;12915448;23;20449;-81
2023/08/02 09:20:08;;;;;;;0.70;0.50;;;;;;;;;;12915641;23;20403;-81
2023/08/02 09:25:22;;;;;;;1.45;0.70;;;;;;;;;;12914148;23;20372;-80
2023/08/02 09:30:26;;;;;;;2.15;0.60;;;;;;;;;;12914608;23;20384;-81
2023/08/02 09:35:31;;;;;;;1.40;0.60;;;;;;;;;;12915193;23;21024;-81
2023/08/02 09:40:37;;;;;;;1.55;0.90;;;;;;;;;;12920718;23;20426;-81
2023/08/02 09:45:39;;;;;;;2.67;0.80;;;;;;;;;;12915679;23;20673;-81
2023/08/02 09:50:54;;;;;;;0.90;0.63;;;;;;;;;;12914690;22;20454;-81
2023/08/02 09:56:00;;;;;;;1.02;0.80;;;;;;;;;;12913500;23;20898;-82
2023/08/02 10:01:04;;;;;;;1.33;0.73;;;;;;;;;;12914895;23;20360;-81
2023/08/02 10:06:08;;;;;;;2.85;0.85;;;;;;;;;;12914391;23;20368;-81
2023/08/02 10:11:12;;;;;;;2.03;0.80;;;;;;;;;;12914853;23;20388;-82
2023/08/02 10:16:16;;;;;;;1.80;0.70;;;;;;;;;;12914053;23;20395;-82
2023/08/02 10:21:19;;;;;;;1.17;0.80;;;;;;;;;;12914043;23;20455;-82
2023/08/02 10:26:23;;;;;;;1.50;0.70;;;;;;;;;;12912519;23;20434;-81
2023/08/02 10:31:26;;;;;;;2.97;0.90;;;;;;;;;;12912961;23;20375;-81
2023/08/02 10:36:54;;;;;;;1.93;1.10;;;;;;;;;;12912737;23;20658;-81
2023/08/02 10:41:58;;;;;;;1.80;0.80;;;;;;;;;;12911024;23;20377;-81
2023/08/02 10:47:24;;;;;;;2.60;1.00;;;;;;;;;;12919601;23;20445;-81
2023/08/02 10:52:31;;;;;;;2.93;1.00;;;;;;;;;;12906392;22;20678;-81
2023/08/02 10:57:35;;;;;;;1.67;1.20;;;;;;;;;;12905058;23;20438;-80
2023/08/02 11:02:46;;;;;;;2.22;1.40;;;;;;;;;;12906926;23;21017;-81
2023/08/02 11:08:08;;;;;;;7.07;1.90;;;;;;;;;;12906363;23;20442;-81
2023/08/02 11:13:11;;;;;;;3.47;1.85;;;;;;;;;;12905601;23;20381;-81
2023/08/02 11:18:14;;;;;;;3.13;1.50;;;;;;;;;;12905824;23;20380;-81
2023/08/02 11:23:26;;;;;;;4.57;1.70;;;;;;;;;;12904938;23;20377;-81
2023/08/02 11:28:38;;;;;;;3.17;1.80;;;;;;;;;;12904532;23;20918;-81
2023/08/02 11:33:42;;;;;;;3.78;1.90;;;;;;;;;;12904544;23;20415;-82
2023/08/02 11:38:44;;;;;;;3.58;1.83;;;;;;;;;;12906075;23;20369;-81
2023/08/02 11:43:49;;;;;;;3.78;1.92;;;;;;;;;;12908466;23;20399;-80
2023/08/02 11:48:51;;;;;;;4.53;1.80;;;;;;;;;;12910760;22;20403;-80
2023/08/02 11:53:55;;;;;;;3.65;1.70;;;;;;;;;;12911136;22;20392;-80
2023/08/02 11:59:00;;;;;;;3.25;2.05;;;;;;;;;;12911484;23;20407;-80
2023/08/02 12:04:05;;;;;;;3.08;1.83;;;;;;;;;;12909551;23;20446;-81
2023/08/02 12:09:08;;;;;;;5.45;2.03;;;;;;;;;;12912282;23;20380;-81
2023/08/02 12:14:11;;;;;;;3.95;2.47;;;;;;;;;;12911892;23;20434;-81
2023/08/02 12:19:14;;;;;;;2.93;1.90;;;;;;;;;;12914713;23;20372;-81
2023/08/02 12:24:17;;;;;;;4.93;2.23;;;;;;;;;;12917279;23;20372;-82
2023/08/02 12:29:24;;;;;;;3.60;1.95;;;;;;;;;;12917140;23;20917;-82
2023/08/02 12:34:27;;;;;;;3.67;2.10;;;;;;;;;;12915037;23;20384;-81
2023/08/02 12:39:29;;;;;;;5.97;2.60;;;;;;;;;;12915967;23;20398;-80
2023/08/02 12:44:33;;;;;;;5.50;2.50;;;;;;;;;;12916379;23;20372;-81
2023/08/02 12:49:35;;;;;;;4.50;2.08;;;;;;;;;;12915515;22;20449;-81
2023/08/02 12:54:38;;;;;;;4.63;2.10;;;;;;;;;;12915274;23;20392;-81
2023/08/02 12:59:41;;;;;;;3.20;2.20;;;;;;;;;;12913556;23;21050;-80
2023/08/02 13:04:44;;;;;;;3.80;2.13;;;;;;;;;;12921278;23;20391;-81
2023/08/02 13:09:46;;;;;;;3.75;2.30;;;;;;;;;;12916472;23;20430;-81
2023/08/02 13:14:50;;;;;;;3.80;2.65;;;;;;;;;;12912485;23;20410;-81
2023/08/02 13:19:52;;;;;;;2.80;2.47;;;;;;;;;;12913402;23;20422;-80
2023/08/02 13:24:54;;;;;;;4.95;2.40;;;;;;;;;;12912391;23;20405;-80
2023/08/02 13:29:58;;;;;;;4.68;2.55;;;;;;;;;;12912272;23;20398;-84
2023/08/02 13:35:01;;;;;;;3.67;2.70;;;;;;;;;;12912700;23;20384;-83
2023/08/02 13:40:04;;;;;;;4.13;2.43;;;;;;;;;;12914163;23;20427;-82
2023/08/02 13:45:08;;;;;;;3.30;2.40;;;;;;;;;;12915590;23;20430;-83
2023/08/02 13:50:10;;;;;;;3.97;2.88;;;;;;;;;;12913025;22;20689;-82
2023/08/02 13:55:13;;;;;;;4.63;2.90;;;;;;;;;;12912328;23;20532;-83
2023/08/02 14:00:17;;;;;;;4.30;2.60;;;;;;;;;;12911823;23;20805;-83
2023/08/02 14:05:21;;;;;;;3.38;2.60;;;;;;;;;;12911056;23;20449;-83
2023/08/02 14:10:23;;;;;;;4.30;2.78;;;;;;;;;;12913324;23;20430;-83
2023/08/02 14:15:27;;;;;;;5.07;2.90;;;;;;;;;;12927859;23;20388;-82
2023/08/02 14:20:29;;;;;;;5.25;3.00;;;;;;;;;;12911391;23;20372;-82
2023/08/02 14:25:32;;;;;;;3.20;2.60;;;;;;;;;;12911883;23;20364;-82
2023/08/02 14:30:35;;;;;;;6.50;2.67;;;;;;;;;;12911085;23;20369;-81
2023/08/02 14:35:38;;;;;;;4.57;2.80;;;;;;;;;;12911781;23;20384;-81
2023/08/02 14:40:40;;;;;;;6.10;2.95;;;;;;;;;;12907095;22;20430;-80
2023/08/02 14:45:44;;;;;;;5.18;3.20;;;;;;;;;;12903697;23;20384;-81
2023/08/02 14:50:46;;;;;;;5.07;3.40;;;;;;;;;;12819674;22;1973054;-81
2023/08/02 14:55:48;;;;;;;5.72;2.95;;;;;;;;;;12900071;23;20423;-81
2023/08/02 15:00:54;;;;;;;4.17;2.70;;;;;;;;;;12902838;23;20430;-83
2023/08/02 15:05:57;;;;;;;5.10;3.00;;;;;;;;;;12904754;23;20431;-81
2023/08/02 15:10:59;;;;;;;4.45;2.70;;;;;;;;;;12905183;23;20411;-82
2023/08/02 15:16:03;;;;;;;5.80;2.85;;;;;;;;;;12906225;23;20380;-80
2023/08/02 15:21:05;;;;;;;4.75;2.92;;;;;;;;;;12906639;23;20372;-83
2023/08/02 15:26:08;;;;;;;5.80;3.00;;;;;;;;;;12924263;23;20750;-83
2023/08/02 15:31:11;;;;;;;4.43;3.17;;;;;;;;;;12910039;23;20876;-81
2023/08/02 15:36:14;;;;;;;3.85;3.28;;;;;;;;;;12911113;23;20383;-82
2023/08/02 15:41:16;;;;;;;7.43;3.50;;;;;;;;;;12897358;23;20465;-82
2023/08/02 15:46:20;;;;;;;4.38;3.13;;;;;;;;;;12909271;23;20449;-82
2023/08/02 15:51:22;;;;;;;4.60;3.10;;;;;;;;;;12910520;22;20388;-81
2023/08/02 15:56:24;;;;;;;4.55;3.10;;;;;;;;;;12910355;23;20442;-82
2023/08/02 16:01:28;;;;;;;7.35;3.22;;;;;;;;;;12909417;23;20368;-81
2023/08/02 16:06:30;;;;;;;4.90;2.97;;;;;;;;;;12910843;23;20364;-82
2023/08/02 16:11:33;;;;;;;6.83;2.90;;;;;;;;;;12910256;23;20446;-81
2023/08/02 16:16:36;;;;;;;5.67;3.47;;;;;;;;;;12909443;23;20415;-82
2023/08/02 16:21:38;;;;;;;5.40;3.10;;;;;;;;;;12908033;23;20384;-81
2023/08/02 16:26:41;;;;;;;3.88;2.97;;;;;;;;;;12906289;23;20407;-81
2023/08/02 16:31:44;;;;;;;5.15;3.30;;;;;;;;;;12909969;23;20388;-81
2023/08/02 16:36:47;;;;;;;4.88;3.17;;;;;;;;;;12913152;23;20376;-82
2023/08/02 16:41:49;;;;;;;4.65;3.17;;;;;;;;;;12906397;23;20463;-82
2023/08/02 16:46:53;;;;;;;7.18;3.15;;;;;;;;;;12908088;23;20885;-82
2023/08/02 16:51:55;;;;;;;5.70;2.95;;;;;;;;;;12907478;22;20407;-82
2023/08/02 16:56:57;;;;;;;4.28;3.00;;;;;;;;;;12906296;23;20380;-81
2023/08/02 17:02:01;;;;;;;4.43;2.90;;;;;;;;;;12907536;23;20364;-82
2023/08/02 17:07:04;;;;;;;5.78;2.88;;;;;;;;;;12909368;23;20380;-81
2023/08/02 17:12:07;;;;;;;5.17;2.70;;;;;;;;;;12905469;23;20457;-82
2023/08/02 17:17:11;;;;;;;5.47;2.97;;;;;;;;;;12907599;23;20380;-82
2023/08/02 17:22:13;;;;;;;6.07;2.95;;;;;;;;;;12908372;23;20380;-82
2023/08/02 17:27:15;;;;;;;6.97;3.05;;;;;;;;;;12906065;23;20372;-81
2023/08/02 17:32:19;;;;;;;4.93;2.63;;;;;;;;;;12906810;23;20384;-82
2023/08/02 17:37:21;;;;;;;5.88;2.42;;;;;;;;;;12908558;23;20804;-81
2023/08/02 17:42:24;;;;;;;5.40;2.70;;;;;;;;;;12911974;23;20372;-82
2023/08/02 17:47:28;;;;;;;5.13;2.40;;;;;;;;;;12908190;23;20380;-81
2023/08/02 17:52:30;;;;;;;6.63;2.55;;;;;;;;;;12907668;22;20419;-82
2023/08/02 17:57:33;;;;;;;4.97;3.30;;;;;;;;;;12907603;23;20384;-82
2023/08/02 18:02:37;;;;;;;4.70;2.70;;;;;;;;;;12907420;23;20373;-81
2023/08/02 18:07:39;;;;;;;5.22;2.95;;;;;;;;;;12904415;23;20372;-82
2023/08/02 18:12:41;;;;;;;5.00;2.85;;;;;;;;;;12903964;23;20456;-82
2023/08/02 18:17:45;;;;;;;7.93;2.58;;;;;;;;;;12910216;23;20407;-82
2023/08/02 18:22:47;;;;;;;4.85;2.65;;;;;;;;;;12905721;23;20773;-82
2023/08/02 18:27:50;;;;;;;4.85;2.67;;;;;;;;;;12912678;23;20984;-81
2023/08/02 18:32:56;;;;;;;4.75;2.50;;;;;;;;;;12905034;23;20387;-81
2023/08/02 18:37:58;;;;;;;4.80;2.70;;;;;;;;;;12904647;23;20686;-82
2023/08/02 18:43:00;;;;;;;5.93;2.55;;;;;;;;;;12906227;23;20395;-82
2023/08/02 18:48:04;;;;;;;5.50;2.70;;;;;;;;;;12901070;23;20407;-82
2023/08/02 18:53:07;;;;;;;4.63;2.80;;;;;;;;;;12954630;22;20379;-82
2023/08/02 18:58:09;;;;;;;5.07;2.78;;;;;;;;;;12969525;22;20370;-84
2023/08/02 19:03:14;;;;;;;5.35;2.60;;;;;;;;;;12963563;22;20378;-82
2023/08/02 19:08:17;;;;;;;5.88;2.90;;;;;;;;;;12961872;22;20436;-82
2023/08/02 19:13:19;;;;;;;4.63;2.72;;;;;;;;;;12962845;22;20383;-82
2023/08/02 19:18:23;;;;;;;6.40;2.63;;;;;;;;;;12962161;22;20405;-81
2023/08/02 19:23:26;;;;;;;5.75;2.72;;;;;;;;;;12968080;22;20703;-80
2023/08/02 19:28:28;;;;;;;4.23;2.47;;;;;;;;;;12939760;22;20480;-81
2023/08/02 19:33:32;;;;;;;7.30;2.57;;;;;;;;;;12966551;22;20386;-81
2023/08/02 19:38:34;;;;;;;6.17;3.10;;;;;;;;;;12967267;22;20375;-83
2023/08/02 19:43:37;;;;;;;6.05;2.58;;;;;;;;;;12970008;22;20387;-81
2023/08/02 19:48:42;;;;;;;5.82;2.55;;;;;;;;;;12969054;22;20375;-80
2023/08/02 19:53:44;;;;;;;5.20;2.57;;;;;;;;;;12968681;22;20715;-81
2023/08/02 19:58:47;;;;;;;5.80;2.80;;;;;;;;;;12974507;22;20383;-81
2023/08/02 20:03:51;;;;;;;8.40;2.90;;;;;;;;;;12973070;22;20378;-81
2023/08/02 20:08:53;;;;;;;6.30;2.70;;;;;;;;;;12973954;22;20383;-80
2023/08/02 20:13:56;;;;;;;3.55;2.72;;;;;;;;;;12973854;22;20445;-81
2023/08/02 20:19:01;;;;;;;3.28;2.20;;;;;;;;;;12972711;22;20397;-81
2023/08/02 20:24:03;;;;;;;6.35;2.50;;;;;;;;;;12975005;22;20446;-81
2023/08/02 20:29:05;;;;;;;5.13;2.47;;;;;;;;;;12973603;22;20382;-80
2023/08/02 20:34:10;;;;;;;3.27;2.40;;;;;;;;;;12972565;22;20386;-82
2023/08/02 20:39:16;;;;;;;4.73;2.60;;;;;;;;;;12973096;22;20383;-82
2023/08/02 20:44:22;;;;;;;5.05;2.70;;;;;;;;;;12971705;22;20379;-82
2023/08/02 20:49:26;;;;;;;8.40;2.85;;;;;;;;;;12972147;22;20983;-82
2023/08/02 20:54:29;;;;;;;6.53;3.00;;;;;;;;;;12973351;22;20386;-82
2023/08/02 20:59:31;;;;;;;4.97;2.95;;;;;;;;;;12971835;22;20374;-82
2023/08/02 21:04:35;;;;;;;5.70;3.30;;;;;;;;;;12972544;22;20905;-82
2023/08/02 21:09:37;;;;;;;4.80;2.90;;;;;;;;;;12972682;22;20387;-82
2023/08/02 21:14:39;;;;;;;6.50;3.40;;;;;;;;;;12970603;22;20924;-82
2023/08/02 21:19:43;;;;;;;5.77;3.23;;;;;;;;;;12971099;22;20362;-82
2023/08/02 21:24:46;;;;;;;7.63;4.00;;;;;;;;;;12972764;22;20719;-81
2023/08/02 21:29:48;;;;;;;5.00;3.10;;;;;;;;;;12972184;22;20374;-82
2023/08/02 21:34:52;;;;;;;4.80;3.13;;;;;;;;;;12971340;22;20386;-82
2023/08/02 21:39:54;;;;;;;5.37;3.10;;;;;;;;;;12971768;22;20378;-82
2023/08/02 21:44:57;;;;;;;4.03;3.13;;;;;;;;;;12971223;22;20757;-82
2023/08/02 21:50:01;;;;;;;5.63;3.40;;;;;;;;;;12970625;22;20379;-81
2023/08/02 21:55:04;;;;;;;9.10;3.80;;;;;;;;;;12969642;22;20417;-82
2023/08/02 22:00:09;;;;;;;7.03;3.70;;;;;;;;;;12971795;22;20402;-82
2023/08/02 22:05:13;;;;;;;7.10;3.88;;;;;;;;;;12969957;22;20908;-82
2023/08/02 22:10:17;;;;;;;6.70;3.80;;;;;;;;;;12972951;22;20371;-82
2023/08/02 22:15:24;;;;;;;7.63;3.80;;;;;;;;;;12977729;22;20384;-82
2023/08/02 22:20:27;;;;;;;6.03;3.83;;;;;;;;;;12979061;22;20444;-81
2023/08/02 22:25:30;;;;;;;5.53;3.55;;;;;;;;;;12978579;22;20363;-82
2023/08/02 22:30:32;;;;;;;8.20;3.40;;;;;;;;;;12978178;22;20371;-82
2023/08/02 22:35:35;;;;;;;6.40;3.23;;;;;;;;;;12977735;22;20444;-82
2023/08/02 22:40:38;;;;;;;4.85;3.20;;;;;;;;;;12975833;22;20379;-82
2023/08/02 22:45:40;;;;;;;4.40;3.00;;;;;;;;;;12978420;22;20363;-82
2023/08/02 22:50:44;;;;;;;6.53;3.75;;;;;;;;;;12975296;22;20375;-82
2023/08/02 22:55:46;;;;;;;6.65;3.58;;;;;;;;;;12976993;22;20440;-82
2023/08/02 23:00:49;;;;;;;5.53;3.47;;;;;;;;;;12976631;22;20424;-82
2023/08/02 23:05:55;;;;;;;5.17;3.07;;;;;;;;;;12977266;22;20420;-82
2023/08/02 23:10:57;;;;;;;6.37;3.50;;;;;;;;;;12973688;22;20366;-81
2023/08/02 23:16:01;;;;;;;5.63;3.30;;;;;;;;;;12974479;22;20386;-82
2023/08/02 23:21:04;;;;;;;5.70;3.13;;;;;;;;;;12973263;22;20371;-82
2023/08/02 23:26:10;;;;;;;6.82;3.10;;;;;;;;;;12973301;22;20424;-82
2023/08/02 23:31:14;;;;;;;7.35;3.10;;;;;;;;;;12975006;22;20750;-81
2023/08/02 23:36:18;;;;;;;7.32;3.40;;;;;;;;;;12976292;22;20554;-82
2023/08/02 23:41:20;;;;;;;6.57;3.35;;;;;;;;;;12978170;22;20401;-82
2023/08/02 23:46:23;;;;;;;4.97;3.33;;;;;;;;;;12978377;22;20359;-82
2023/08/02 23:51:26;;;;;;;5.80;3.53;;;;;;;;;;12981291;22;20436;-82
2023/08/02 23:56:29;;;;;;;7.55;3.08;;;;;;;;;;12982333;22;20382;-82
